createdAt,value
2022-09-18T00:02:54.415Z,100.00
2022-09-18T00:08:20.520Z,100.00
2022-09-18T00:13:45.139Z,100.00
2022-09-18T00:19:10.266Z,100.00
2022-09-18T00:24:35.412Z,100.00
2022-09-18T00:29:59.591Z,100.00
2022-09-18T00:35:24.475Z,100.00
2022-09-18T00:40:50.405Z,100.00
2022-09-18T00:46:25.218Z,100.00
2022-09-18T00:51:53.849Z,100.00
2022-09-18T00:57:23.382Z,100.00
2022-09-18T01:02:48.647Z,100.00
2022-09-18T01:08:28.745Z,100.00
2022-09-18T01:14:08.893Z,100.00
2022-09-18T01:19:58.119Z,100.00
2022-09-18T01:25:34.329Z,100.00
2022-09-18T01:31:04.384Z,100.00
2022-09-18T01:36:31.397Z,100.00
2022-09-18T01:42:01.480Z,100.00
2022-09-18T01:47:36.821Z,100.00
2022-09-18T01:53:08.039Z,100.00
2022-09-18T01:58:35.413Z,100.00
2022-09-18T02:04:07.409Z,100.00
2022-09-18T02:09:35.082Z,100.00
2022-09-18T02:15:03.717Z,100.00
2022-09-18T02:20:38.995Z,100.00
2022-09-18T02:26:07.236Z,100.00
2022-09-18T02:31:34.147Z,100.00
2022-09-18T02:37:12.292Z,100.00
2022-09-18T02:42:43.416Z,100.00
2022-09-18T02:48:23.222Z,100.00
2022-09-18T02:53:58.273Z,100.00
2022-09-18T02:59:27.344Z,100.00
2022-09-18T03:04:53.796Z,100.00
2022-09-18T03:10:32.758Z,100.00
2022-09-18T03:15:57.227Z,100.00
2022-09-18T03:21:22.606Z,100.00
2022-09-18T03:26:49.680Z,100.00
2022-09-18T03:32:13.692Z,100.00
2022-09-18T03:37:46.862Z,100.00
2022-09-18T03:43:16.062Z,100.00
2022-09-18T03:48:40.161Z,100.00
2022-09-18T03:54:04.783Z,100.00
2022-09-18T03:59:49.157Z,100.00
2022-09-18T04:05:33.314Z,100.00
2022-09-18T04:11:16.027Z,100.00
2022-09-18T04:16:43.303Z,100.00
2022-09-18T04:22:07.620Z,100.00
2022-09-18T04:27:37.146Z,100.00
2022-09-18T04:33:03.179Z,100.00
2022-09-18T04:38:28.601Z,100.00
2022-09-18T04:43:53.654Z,100.00
2022-09-18T04:49:19.324Z,100.00
2022-09-18T04:54:43.396Z,100.00
2022-09-18T05:00:09.324Z,100.00
2022-09-18T05:05:36.216Z,100.00
2022-09-18T05:11:04.520Z,100.00
2022-09-18T05:16:31.845Z,100.00
2022-09-18T05:22:16.727Z,100.00
2022-09-18T05:27:44.750Z,100.00
2022-09-18T05:33:11.075Z,100.00
2022-09-18T05:38:38.640Z,100.00
2022-09-18T05:44:06.133Z,100.00
2022-09-18T05:49:31.005Z,100.00
2022-09-18T05:54:56.028Z,100.00
2022-09-18T06:00:20.025Z,100.00
2022-09-18T06:05:52.095Z,100.00
2022-09-18T06:11:18.077Z,100.00
2022-09-18T06:16:42.591Z,100.00
2022-09-18T06:22:11.170Z,100.00
2022-09-18T06:27:36.985Z,100.00
2022-09-18T06:33:02.865Z,100.00
2022-09-18T06:38:26.860Z,100.00
2022-09-18T06:43:52.855Z,100.00
2022-09-18T06:49:28.726Z,100.00
2022-09-18T06:54:53.673Z,100.00
2022-09-18T07:00:29.267Z,100.00
2022-09-18T07:05:53.428Z,100.00
2022-09-18T07:11:33.062Z,100.00
2022-09-18T07:17:00.347Z,100.00
2022-09-18T07:22:26.708Z,100.00
2022-09-18T07:27:50.929Z,100.00
2022-09-18T07:33:18.754Z,100.00
2022-09-18T07:38:45.148Z,100.00
2022-09-18T07:44:09.470Z,99.50
2022-09-18T07:49:39.075Z,95.69
2022-09-18T07:55:06.745Z,99.90
2022-09-18T08:00:34.909Z,100.00
2022-09-18T08:06:00.420Z,100.00
2022-09-18T08:11:25.481Z,100.00
2022-09-18T08:17:26.840Z,97.94
2022-09-18T08:23:09.952Z,96.27
2022-09-18T08:28:36.556Z,90.82
2022-09-18T08:34:02.407Z,83.10
2022-09-18T08:39:30.125Z,81.30
2022-09-18T08:45:36.097Z,77.10
2022-09-18T08:51:05.979Z,79.49
2022-09-18T08:56:31.941Z,76.65
2022-09-18T09:02:39.769Z,72.98
2022-09-18T09:08:38.144Z,66.08
2022-09-18T09:14:06.692Z,68.04
2022-09-18T09:19:38.563Z,69.59
2022-09-18T09:25:13.308Z,69.32
2022-09-18T09:30:59.571Z,65.26
2022-09-18T09:37:03.439Z,64.20
2022-09-18T09:42:32.607Z,69.24
2022-09-18T09:48:09.143Z,72.04
2022-09-18T09:53:37.790Z,73.85
2022-09-18T09:59:12.584Z,70.72
2022-09-18T10:05:02.422Z,60.20
2022-09-18T10:10:34.672Z,60.61
2022-09-18T10:16:04.233Z,56.62
2022-09-18T10:21:35.242Z,54.41
2022-09-18T10:27:08.282Z,55.00
2022-09-18T10:32:36.446Z,53.83
2022-09-18T10:38:28.087Z,52.83
2022-09-18T10:44:05.039Z,54.30
2022-09-18T10:49:32.225Z,56.27
2022-09-18T10:55:03.429Z,56.80
2022-09-18T11:00:39.335Z,52.84
2022-09-18T11:06:10.292Z,51.28
2022-09-18T11:11:38.214Z,51.71
2022-09-18T11:17:16.778Z,49.41
2022-09-18T11:22:44.349Z,48.82
2022-09-18T11:28:31.550Z,49.23
2022-09-18T11:34:03.011Z,49.18
2022-09-18T11:39:40.854Z,49.09
2022-09-18T11:45:22.484Z,48.51
2022-09-18T11:50:47.921Z,48.96
2022-09-18T11:56:16.768Z,49.16
2022-09-18T12:01:47.521Z,49.39
2022-09-18T12:07:38.074Z,50.13
2022-09-18T12:13:20.867Z,50.06
2022-09-18T12:19:00.150Z,50.19
2022-09-18T12:24:25.751Z,50.43
2022-09-18T12:30:04.944Z,49.46
2022-09-18T12:35:43.814Z,48.55
2022-09-18T12:41:18.171Z,48.67
2022-09-18T12:46:56.905Z,47.06
2022-09-18T12:52:40.839Z,46.36
2022-09-18T12:58:36.301Z,45.71
2022-09-18T13:04:07.349Z,46.45
2022-09-18T13:09:39.853Z,45.93
2022-09-18T13:15:12.018Z,45.55
2022-09-18T13:20:41.297Z,44.31
2022-09-18T13:26:11.652Z,44.31
2022-09-18T13:31:37.809Z,44.29
2022-09-18T13:37:07.494Z,45.30
2022-09-18T13:42:35.277Z,45.47
2022-09-18T13:48:06.455Z,44.96
2022-09-18T13:53:42.834Z,44.68
2022-09-18T13:59:20.628Z,43.95
2022-09-18T14:05:20.547Z,44.31
2022-09-18T14:11:16.748Z,43.75
2022-09-18T14:16:44.789Z,44.08
2022-09-18T14:22:24.676Z,44.77
2022-09-18T14:27:57.100Z,46.48
2022-09-18T14:33:23.851Z,48.68
2022-09-18T14:38:49.843Z,50.38
2022-09-18T14:44:17.539Z,51.87
2022-09-18T14:49:48.314Z,53.38
2022-09-18T14:55:20.148Z,55.12
2022-09-18T15:00:45.111Z,56.46
2022-09-18T15:06:17.820Z,57.59
2022-09-18T15:12:01.462Z,58.91
2022-09-18T15:17:28.301Z,60.09
2022-09-18T15:22:56.803Z,62.16
2022-09-18T15:28:27.012Z,62.66
2022-09-18T15:33:55.566Z,60.95
2022-09-18T15:39:30.877Z,57.38
2022-09-18T15:45:15.440Z,56.72
2022-09-18T15:50:42.038Z,53.40
2022-09-18T15:56:21.128Z,50.63
2022-09-18T16:01:48.965Z,51.63
2022-09-18T16:07:20.816Z,52.02
2022-09-18T16:12:47.282Z,53.45
2022-09-18T16:18:27.120Z,52.33
2022-09-18T16:23:53.639Z,53.41
2022-09-18T16:29:21.169Z,56.48
2022-09-18T16:34:46.744Z,58.71
2022-09-18T16:40:18.566Z,62.93
2022-09-18T16:45:44.643Z,65.93
2022-09-18T16:51:10.011Z,68.79
2022-09-18T16:56:43.293Z,71.06
2022-09-18T17:02:10.223Z,73.65
2022-09-18T17:07:35.707Z,75.47
2022-09-18T17:12:59.559Z,69.46
2022-09-18T17:18:25.056Z,60.91
2022-09-18T17:23:49.624Z,59.36
2022-09-18T17:29:14.133Z,57.57
2022-09-18T17:34:39.549Z,58.95
2022-09-18T17:40:06.165Z,59.57
2022-09-18T17:45:30.060Z,61.93
2022-09-18T17:50:59.332Z,62.61
2022-09-18T17:56:29.764Z,62.55
2022-09-18T18:01:54.142Z,60.80
2022-09-18T18:07:20.220Z,61.35
2022-09-18T18:12:44.184Z,61.53
2022-09-18T18:18:08.318Z,62.25
2022-09-18T18:23:34.431Z,60.81
2022-09-18T18:28:58.962Z,56.30
2022-09-18T18:34:25.317Z,55.77
2022-09-18T18:39:53.609Z,56.25
2022-09-18T18:45:17.832Z,56.31
2022-09-18T18:50:42.987Z,57.07
2022-09-18T18:56:11.039Z,58.09
2022-09-18T19:01:36.183Z,59.11
2022-09-18T19:07:01.440Z,59.45
2022-09-18T19:12:27.712Z,58.75
2022-09-18T19:17:59.237Z,57.94
2022-09-18T19:23:23.731Z,59.16
2022-09-18T19:28:54.733Z,59.56
2022-09-18T19:34:22.020Z,60.01
2022-09-18T19:39:48.982Z,62.33
2022-09-18T19:45:21.990Z,64.70
2022-09-18T19:50:47.293Z,64.92
2022-09-18T19:56:27.598Z,63.59
2022-09-18T20:01:58.029Z,65.21
2022-09-18T20:07:23.101Z,66.15
2022-09-18T20:12:48.616Z,66.97
2022-09-18T20:18:15.651Z,69.92
2022-09-18T20:23:39.549Z,70.63
2022-09-18T20:29:04.917Z,70.75
2022-09-18T20:34:30.147Z,70.75
2022-09-18T20:39:54.949Z,70.90
2022-09-18T20:45:19.841Z,71.23
2022-09-18T20:50:46.516Z,71.78
2022-09-18T20:56:13.147Z,73.12
2022-09-18T21:01:37.986Z,73.18
2022-09-18T21:07:03.880Z,74.49
2022-09-18T21:12:31.897Z,74.71
2022-09-18T21:17:57.393Z,76.36
2022-09-18T21:23:40.440Z,77.31
2022-09-18T21:29:08.496Z,77.61
2022-09-18T21:34:33.944Z,77.87
2022-09-18T21:39:59.884Z,78.32
2022-09-18T21:45:24.292Z,78.17
2022-09-18T21:50:48.739Z,78.63
2022-09-18T21:56:16.911Z,80.66
2022-09-18T22:01:42.885Z,82.26
2022-09-18T22:07:07.933Z,83.02
2022-09-18T22:12:34.101Z,83.13
2022-09-18T22:17:58.810Z,84.29
2022-09-18T22:23:24.672Z,86.02
2022-09-18T22:28:53.622Z,86.68
2022-09-18T22:34:20.295Z,87.37
2022-09-18T22:39:45.603Z,88.40
2022-09-18T22:45:12.415Z,88.13
2022-09-18T22:50:37.178Z,88.26
2022-09-18T22:56:03.463Z,88.65
2022-09-18T23:01:32.828Z,88.90
2022-09-18T23:07:00.120Z,89.19
2022-09-18T23:12:24.928Z,88.88
2022-09-18T23:17:52.575Z,89.05
2022-09-18T23:23:20.723Z,88.71
2022-09-18T23:28:47.295Z,88.27
2022-09-18T23:34:16.927Z,88.36
2022-09-18T23:39:41.699Z,88.78
2022-09-18T23:45:06.821Z,89.29
2022-09-18T23:50:34.444Z,90.22
2022-09-18T23:56:03.334Z,91.03
